Time;durP1;ratioP1;P1;durP2;ratioP2;P2;SDS_P1;SDS_P2;PMS_P1;PMS_P2;Temp;Humidity;BMP_temperature;BMP_pressure;BME280_temperature;BME280_humidity;BME280_pressure;Samples;Min_cycle;Max_cycle;Signal;HPM_P1;HPM_P2
2022/07/06 00:01:55;;;;;;;1.65;0.30;;;18.30;71.80;;;;;;5094059;28;20047;-72
2022/07/06 00:04:21;;;;;;;1.80;0.40;;;18.30;71.80;;;;;;5093647;28;20077;-71
2022/07/06 00:06:47;;;;;;;3.35;0.30;;;18.30;71.80;;;;;;5093521;28;20024;-71
2022/07/06 00:09:13;;;;;;;3.50;0.43;;;18.30;72.00;;;;;;5093677;28;20028;-72
2022/07/06 00:11:38;;;;;;;2.42;0.43;;;18.20;72.00;;;;;;5093381;28;20023;-71
2022/07/06 00:14:04;;;;;;;3.17;0.43;;;18.20;72.10;;;;;;5093659;28;20020;-71
2022/07/06 00:16:31;;;;;;;1.63;0.25;;;18.20;72.20;;;;;;5093565;28;20016;-71
2022/07/06 00:18:56;;;;;;;5.15;0.55;;;18.10;72.30;;;;;;5093462;28;20036;-72
2022/07/06 00:21:22;;;;;;;2.33;0.40;;;18.00;72.80;;;;;;5093182;28;20027;-70
2022/07/06 00:23:48;;;;;;;2.83;0.43;;;18.00;72.70;;;;;;5093477;28;20020;-70
2022/07/06 00:26:13;;;;;;;4.53;0.50;;;18.00;73.10;;;;;;5093612;28;20041;-71
2022/07/06 00:28:39;;;;;;;2.15;0.45;;;18.00;73.30;;;;;;5093411;28;20448;-71
2022/07/06 00:31:05;;;;;;;2.15;0.40;;;17.90;73.50;;;;;;5093253;28;20024;-70
2022/07/06 00:33:32;;;;;;;3.22;0.40;;;17.80;73.60;;;;;;5093343;28;20514;-70
2022/07/06 00:35:58;;;;;;;3.10;0.30;;;17.80;74.00;;;;;;5093260;28;20431;-70
2022/07/06 00:38:24;;;;;;;3.88;0.45;;;17.70;74.20;;;;;;5093838;28;20036;-71
2022/07/06 00:40:49;;;;;;;3.08;0.30;;;17.70;74.40;;;;;;5093510;28;20471;-70
2022/07/06 00:43:15;;;;;;;2.25;0.20;;;17.70;74.40;;;;;;5097019;28;20027;-71
2022/07/06 00:45:41;;;;;;;2.40;0.65;;;17.80;74.40;;;;;;5097538;28;20035;-70
2022/07/06 00:48:06;;;;;;;2.85;0.68;;;17.90;74.50;;;;;;5097251;28;20451;-70
2022/07/06 00:50:33;;;;;;;6.55;1.10;;;17.80;74.20;;;;;;5097054;28;20039;-70
2022/07/06 00:53:01;;;;;;;2.45;0.52;;;17.80;74.30;;;;;;5097528;28;20061;-71
2022/07/06 00:55:29;;;;;;;3.47;0.50;;;17.80;74.30;;;;;;5097438;28;20020;-71
2022/07/06 00:57:55;;;;;;;4.35;0.38;;;17.70;74.60;;;;;;5096656;28;20043;-70
2022/07/06 01:00:24;;;;;;;1.90;0.40;;;17.70;74.90;;;;;;5097209;28;20124;-71
2022/07/06 01:02:50;;;;;;;1.02;0.20;;;17.70;75.00;;;;;;5097183;28;20035;-71
2022/07/06 01:05:16;;;;;;;3.17;0.30;;;17.60;75.00;;;;;;5097283;28;20020;-71
2022/07/06 01:07:43;;;;;;;2.53;0.40;;;17.70;75.00;;;;;;5097040;28;20464;-71
2022/07/06 01:10:12;;;;;;;1.67;0.22;;;17.80;75.10;;;;;;5097274;28;20027;-71
2022/07/06 01:12:40;;;;;;;2.75;0.75;;;17.80;75.10;;;;;;5096898;28;20024;-71
2022/07/06 01:15:09;;;;;;;3.42;0.40;;;17.80;75.00;;;;;;5096842;28;20129;-71
2022/07/06 01:17:35;;;;;;;3.55;0.50;;;17.80;74.90;;;;;;5096249;28;20400;-71
2022/07/06 01:20:16;;;;;;;2.45;0.65;;;17.90;74.80;;;;;;5096795;28;20020;-71
2022/07/06 01:22:43;;;;;;;2.25;0.30;;;17.90;74.70;;;;;;5096814;28;20097;-71
2022/07/06 01:25:09;;;;;;;3.70;0.43;;;17.80;74.70;;;;;;5096904;28;20047;-71
2022/07/06 01:27:38;;;;;;;3.08;0.50;;;17.80;74.80;;;;;;5096584;28;20042;-70
2022/07/06 01:30:06;;;;;;;1.45;0.40;;;17.80;74.90;;;;;;5096357;28;20020;-70
2022/07/06 01:32:31;;;;;;;2.28;0.38;;;17.80;75.20;;;;;;5097661;28;20038;-68
2022/07/06 01:34:57;;;;;;;4.47;0.55;;;17.80;75.30;;;;;;5097302;28;20016;-71
2022/07/06 01:37:22;;;;;;;2.40;0.35;;;17.80;75.40;;;;;;5096320;28;20024;-71
2022/07/06 01:39:48;;;;;;;2.13;0.30;;;17.90;75.30;;;;;;5096570;28;20051;-71
2022/07/06 01:42:14;;;;;;;1.85;0.30;;;18.00;75.10;;;;;;5096183;28;20020;-71
2022/07/06 01:44:39;;;;;;;3.05;0.50;;;18.00;74.90;;;;;;5096155;28;20032;-71
2022/07/06 01:47:05;;;;;;;5.25;0.40;;;18.10;74.80;;;;;;5096007;28;20433;-71
2022/07/06 01:49:31;;;;;;;3.05;0.43;;;18.00;74.50;;;;;;5095971;28;20580;-71
2022/07/06 01:51:57;;;;;;;4.00;0.40;;;18.00;74.70;;;;;;5095763;28;20028;-71
2022/07/06 01:54:23;;;;;;;3.17;0.50;;;18.00;74.60;;;;;;5095944;28;20459;-71
2022/07/06 01:56:49;;;;;;;1.00;0.30;;;17.90;74.60;;;;;;5096296;28;20032;-71
2022/07/06 01:59:14;;;;;;;1.95;0.30;;;17.90;74.90;;;;;;5095941;28;20513;-71
2022/07/06 02:01:40;;;;;;;4.07;0.50;;;17.80;75.10;;;;;;5096262;28;20020;-71
2022/07/06 02:04:05;;;;;;;2.92;0.40;;;17.70;75.10;;;;;;5095845;28;20467;-71
2022/07/06 02:06:31;;;;;;;0.95;0.20;;;17.60;75.50;;;;;;5096070;28;20055;-71
2022/07/06 02:08:57;;;;;;;3.67;0.63;;;17.60;75.50;;;;;;5095949;28;20023;-70
2022/07/06 02:11:23;;;;;;;1.92;0.20;;;17.50;75.70;;;;;;5096324;28;20020;-70
2022/07/06 02:13:49;;;;;;;1.92;0.30;;;17.50;75.90;;;;;;5095584;28;20074;-71
2022/07/06 02:16:14;;;;;;;3.65;0.50;;;17.40;76.10;;;;;;5095981;28;20032;-70
2022/07/06 02:18:40;;;;;;;1.48;0.40;;;17.40;76.30;;;;;;5095675;28;20536;-70
2022/07/06 02:21:05;;;;;;;2.58;0.60;;;17.30;76.60;;;;;;5095886;28;20046;-71
2022/07/06 02:23:31;;;;;;;4.50;0.55;;;17.20;76.70;;;;;;5095258;28;20031;-71
2022/07/06 02:25:57;;;;;;;1.73;0.50;;;17.10;77.00;;;;;;5095558;28;20494;-72
2022/07/06 02:28:22;;;;;;;4.03;0.50;;;17.10;77.20;;;;;;5096207;28;20386;-68
2022/07/06 02:30:48;;;;;;;4.00;0.70;;;17.00;77.10;;;;;;5096483;28;20016;-70
2022/07/06 02:33:13;;;;;;;5.22;0.43;;;17.00;77.40;;;;;;5095678;28;20344;-70
2022/07/06 02:35:42;;;;;;;4.22;0.60;;;17.00;77.40;;;;;;5095414;28;20020;-70
2022/07/06 02:38:08;;;;;;;2.42;0.30;;;16.90;77.60;;;;;;5095119;28;20068;-70
2022/07/06 02:40:34;;;;;;;6.18;0.47;;;16.90;77.70;;;;;;5095017;28;20020;-71
2022/07/06 02:42:59;;;;;;;4.63;0.40;;;16.90;77.80;;;;;;5095121;28;20107;-71
2022/07/06 02:45:25;;;;;;;2.40;0.40;;;16.90;77.80;;;;;;5095086;28;20024;-71
2022/07/06 02:47:51;;;;;;;1.67;0.38;;;16.80;77.90;;;;;;5095419;28;20065;-71
2022/07/06 02:50:17;;;;;;;3.35;0.35;;;16.80;78.10;;;;;;5093688;28;20063;-71
2022/07/06 02:52:42;;;;;;;5.45;0.32;;;16.80;78.20;;;;;;5095234;28;20375;-71
2022/07/06 02:55:08;;;;;;;4.00;0.50;;;16.80;78.20;;;;;;5095548;28;20035;-71
2022/07/06 02:57:35;;;;;;;2.13;0.40;;;16.80;78.10;;;;;;5094788;28;20032;-71
2022/07/06 03:00:01;;;;;;;4.88;0.50;;;16.70;78.10;;;;;;5094840;28;20452;-70
2022/07/06 03:02:27;;;;;;;5.07;0.60;;;16.80;78.30;;;;;;5094882;28;20028;-71
2022/07/06 03:04:52;;;;;;;2.45;0.43;;;16.80;78.10;;;;;;5093817;28;20479;-71
2022/07/06 03:07:18;;;;;;;1.60;0.38;;;16.80;78.20;;;;;;5094654;28;20074;-70
2022/07/06 03:09:43;;;;;;;1.73;0.30;;;16.90;78.20;;;;;;5094988;28;20051;-71
2022/07/06 03:12:09;;;;;;;3.67;0.20;;;16.90;78.10;;;;;;5094576;28;20020;-71
2022/07/06 03:14:35;;;;;;;4.20;0.32;;;17.00;78.20;;;;;;5094364;28;20028;-71
2022/07/06 03:17:00;;;;;;;2.95;0.95;;;17.00;78.10;;;;;;5094744;28;20024;-71
2022/07/06 03:19:26;;;;;;;1.42;0.20;;;17.10;78.00;;;;;;5094498;28;20456;-71
2022/07/06 03:21:51;;;;;;;1.20;0.20;;;17.20;77.90;;;;;;5094447;28;20042;-71
2022/07/06 03:24:17;;;;;;;1.67;0.20;;;17.20;77.70;;;;;;5095112;28;20055;-70
2022/07/06 03:26:43;;;;;;;3.70;0.28;;;17.30;77.70;;;;;;5094916;28;20069;-71
2022/07/06 03:29:08;;;;;;;1.70;0.20;;;17.30;77.60;;;;;;5094617;28;20065;-71
2022/07/06 03:31:35;;;;;;;2.67;0.32;;;17.40;77.60;;;;;;5094308;28;20478;-71
2022/07/06 03:34:00;;;;;;;1.83;0.30;;;17.40;77.50;;;;;;5094239;28;20020;-70
2022/07/06 03:36:26;;;;;;;2.00;0.30;;;17.50;77.60;;;;;;5094077;28;20028;-71
2022/07/06 03:38:52;;;;;;;2.88;0.20;;;17.50;77.50;;;;;;5094169;28;20032;-71
2022/07/06 03:41:17;;;;;;;2.42;0.40;;;17.50;77.90;;;;;;5093811;28;20360;-71
2022/07/06 03:43:43;;;;;;;2.75;0.30;;;17.50;77.20;;;;;;5094031;28;20020;-70
2022/07/06 03:46:08;;;;;;;1.20;0.20;;;17.60;77.20;;;;;;5094251;28;20028;-71
2022/07/06 03:48:34;;;;;;;1.67;0.40;;;17.60;77.20;;;;;;5094094;28;20374;-70
2022/07/06 03:51:00;;;;;;;1.67;0.25;;;17.60;77.00;;;;;;5093870;28;20032;-70
2022/07/06 03:53:26;;;;;;;3.65;0.22;;;17.60;77.00;;;;;;5093834;28;20031;-71
2022/07/06 03:58:36;;;;;;;4.78;0.20;;;17.70;76.70;;;;;;5093730;28;20085;-71
2022/07/06 04:01:01;;;;;;;1.95;0.20;;;17.70;76.10;;;;;;5093817;28;20387;-71
2022/07/06 04:03:27;;;;;;;1.48;0.30;;;17.70;76.10;;;;;;5093871;28;20039;-70
2022/07/06 04:05:53;;;;;;;2.03;0.30;;;17.60;76.10;;;;;;5093524;28;20103;-70
2022/07/06 04:08:19;;;;;;;4.13;0.30;;;17.50;76.30;;;;;;5093580;28;20044;-70
2022/07/06 04:10:45;;;;;;;4.43;0.35;;;17.50;76.50;;;;;;5093876;28;20356;-73
2022/07/06 04:13:11;;;;;;;2.97;0.40;;;17.40;76.70;;;;;;5093334;28;20031;-71
2022/07/06 04:15:36;;;;;;;3.85;0.40;;;17.40;76.90;;;;;;5093501;28;20020;-71
2022/07/06 04:18:02;;;;;;;2.63;0.40;;;17.30;76.90;;;;;;5093438;28;20032;-70
2022/07/06 04:20:28;;;;;;;4.45;0.50;;;17.30;77.00;;;;;;5094098;28;20024;-70
2022/07/06 04:22:53;;;;;;;4.25;0.45;;;17.20;77.10;;;;;;5093345;28;20024;-70
2022/07/06 04:25:20;;;;;;;2.75;0.20;;;17.20;77.40;;;;;;5093593;28;20055;-71
2022/07/06 04:27:46;;;;;;;3.83;0.25;;;17.10;77.50;;;;;;5093286;28;20070;-71
2022/07/06 04:30:12;;;;;;;1.98;0.20;;;17.10;77.50;;;;;;5093518;28;20463;-70
2022/07/06 04:32:37;;;;;;;0.90;0.17;;;17.20;78.20;;;;;;5093547;28;20028;-71
2022/07/06 04:35:04;;;;;;;2.28;0.20;;;17.20;77.70;;;;;;5093580;28;20016;-71
2022/07/06 04:37:30;;;;;;;2.28;0.40;;;17.30;77.70;;;;;;5092852;28;20554;-70
2022/07/06 04:39:56;;;;;;;4.90;0.40;;;17.30;77.50;;;;;;5093428;28;20421;-71
2022/07/06 04:42:21;;;;;;;2.45;0.35;;;17.30;77.50;;;;;;5093180;28;20024;-70
2022/07/06 04:44:47;;;;;;;6.72;0.38;;;17.30;77.60;;;;;;5093356;28;20054;-70
2022/07/06 04:47:14;;;;;;;2.17;0.40;;;17.20;77.90;;;;;;5093290;28;20016;-71
2022/07/06 04:49:39;;;;;;;2.75;0.50;;;17.20;77.90;;;;;;5092768;28;20052;-71
2022/07/06 04:52:05;;;;;;;3.53;0.40;;;17.10;78.00;;;;;;5093382;28;20051;-71
2022/07/06 04:54:31;;;;;;;3.10;0.20;;;17.20;78.20;;;;;;5093411;28;20042;-71
2022/07/06 04:56:57;;;;;;;5.22;0.40;;;17.10;78.40;;;;;;5093356;28;20499;-71
2022/07/06 04:59:22;;;;;;;2.58;0.20;;;17.10;78.50;;;;;;5093301;28;20032;-72
2022/07/06 05:01:48;;;;;;;4.63;0.30;;;17.10;78.70;;;;;;5092731;28;20024;-71
2022/07/06 05:04:13;;;;;;;3.38;0.25;;;17.10;79.10;;;;;;5093300;28;20031;-72
2022/07/06 05:06:40;;;;;;;2.92;0.50;;;17.10;79.10;;;;;;5093004;28;20100;-71
2022/07/06 05:09:06;;;;;;;1.98;0.22;;;17.10;79.10;;;;;;5093214;28;20028;-72
2022/07/06 05:11:31;;;;;;;2.83;0.30;;;17.10;79.20;;;;;;5093024;28;20111;-72
2022/07/06 05:13:57;;;;;;;3.85;0.35;;;17.20;79.30;;;;;;5093067;28;20062;-71
2022/07/06 05:16:23;;;;;;;4.93;0.50;;;17.20;79.90;;;;;;5092938;28;20103;-70
2022/07/06 05:18:49;;;;;;;2.03;0.20;;;17.20;79.90;;;;;;5093550;28;20043;-71
2022/07/06 05:21:15;;;;;;;1.75;0.20;;;17.10;80.00;;;;;;5092748;28;20154;-71
2022/07/06 05:23:42;;;;;;;2.03;0.25;;;17.10;80.10;;;;;;5092746;28;20028;-70
2022/07/06 05:26:08;;;;;;;2.20;0.20;;;17.20;80.40;;;;;;5092913;28;20039;-71
2022/07/06 05:28:33;;;;;;;4.97;0.60;;;17.20;80.50;;;;;;5094914;28;20020;-71
2022/07/06 05:30:59;;;;;;;1.75;0.20;;;17.10;80.70;;;;;;5096714;28;20051;-71
2022/07/06 05:33:27;;;;;;;3.88;0.30;;;17.10;80.80;;;;;;5096859;28;20109;-71
2022/07/06 05:35:53;;;;;;;3.50;0.57;;;17.10;80.90;;;;;;5095853;28;20372;-77
2022/07/06 05:38:19;;;;;;;3.60;0.20;;;17.10;82.60;;;;;;5095250;28;20101;-75
2022/07/06 05:40:44;;;;;;;2.22;0.30;;;17.30;81.90;;;;;;5093332;28;20107;-77
2022/07/06 05:43:10;;;;;;;3.75;0.30;;;17.50;81.40;;;;;;5093956;28;20081;-76
2022/07/06 05:45:35;;;;;;;4.15;0.50;;;17.60;80.80;;;;;;5092867;28;20510;-77
2022/07/06 05:50:45;;;;;;;2.55;0.20;;;18.00;79.80;;;;;;5093427;28;20394;-76
2022/07/06 05:53:11;;;;;;;5.28;0.10;;;18.10;79.60;;;;;;5094205;28;20024;-76
2022/07/06 05:55:36;;;;;;;1.58;0.20;;;18.20;79.00;;;;;;5094511;28;20046;-76
2022/07/06 05:58:02;;;;;;;2.97;0.13;;;18.30;78.40;;;;;;5092830;28;20031;-76
2022/07/06 06:00:28;;;;;;;2.35;0.20;;;18.50;78.20;;;;;;5093426;28;20031;-77
2022/07/06 06:02:54;;;;;;;2.00;0.22;;;18.60;78.00;;;;;;5092359;28;20032;-76
2022/07/06 06:05:20;;;;;;;1.33;0.17;;;18.90;77.80;;;;;;5094967;28;20032;-76
2022/07/06 06:07:48;;;;;;;3.30;0.32;;;19.00;76.20;;;;;;5095499;28;20020;-75
2022/07/06 06:10:14;;;;;;;3.45;0.20;;;19.00;76.00;;;;;;5097540;28;20035;-77
2022/07/06 06:12:40;;;;;;;4.10;0.20;;;19.00;75.50;;;;;;5106866;28;20120;-78
2022/07/06 06:15:07;;;;;;;2.40;0.43;;;19.00;75.80;;;;;;5099698;28;20073;-77
2022/07/06 06:17:33;;;;;;;2.30;0.20;;;19.00;75.20;;;;;;5092728;28;20067;-75
2022/07/06 06:19:59;;;;;;;1.92;0.20;;;18.80;75.40;;;;;;5093177;28;20517;-76
2022/07/06 06:22:25;;;;;;;3.50;0.28;;;18.80;75.90;;;;;;5092588;28;20028;-76
2022/07/06 06:24:51;;;;;;;2.42;0.20;;;18.90;75.90;;;;;;5092857;28;20027;-76
2022/07/06 06:27:16;;;;;;;2.15;0.20;;;18.90;75.90;;;;;;5094375;28;20591;-79
2022/07/06 06:29:44;;;;;;;2.05;0.30;;;18.90;76.10;;;;;;5094051;28;20114;-78
2022/07/06 06:32:13;;;;;;;3.10;0.55;;;19.00;75.60;;;;;;5093565;28;20105;-78
2022/07/06 06:34:39;;;;;;;4.95;0.30;;;19.00;75.80;;;;;;5093837;28;20032;-79
2022/07/06 06:37:05;;;;;;;2.72;0.20;;;19.00;76.00;;;;;;5093515;28;20101;-77
2022/07/06 06:39:30;;;;;;;1.83;0.30;;;19.10;76.20;;;;;;5093295;28;20493;-78
2022/07/06 06:41:56;;;;;;;2.60;0.47;;;19.30;75.90;;;;;;5093919;28;20513;-77
2022/07/06 06:44:25;;;;;;;4.20;0.30;;;19.40;75.60;;;;;;5094514;28;20122;-76
2022/07/06 06:46:52;;;;;;;3.10;0.20;;;19.50;75.60;;;;;;5092336;28;20035;-79
2022/07/06 06:49:18;;;;;;;2.65;0.20;;;19.60;74.90;;;;;;5093458;28;20040;-77
2022/07/06 06:51:44;;;;;;;2.95;0.17;;;19.70;74.20;;;;;;5093512;28;20108;-77
2022/07/06 06:54:09;;;;;;;2.65;0.20;;;19.90;74.10;;;;;;5092545;28;20051;-75
2022/07/06 06:56:35;;;;;;;1.02;0.10;;;19.90;73.70;;;;;;5093750;28;20062;-77
2022/07/06 06:59:01;;;;;;;2.10;0.20;;;19.90;73.60;;;;;;5092361;28;20494;-77
2022/07/06 07:01:27;;;;;;;1.85;0.22;;;20.00;73.30;;;;;;5093933;28;20024;-77
2022/07/06 07:03:54;;;;;;;2.83;0.30;;;20.10;73.20;;;;;;5093653;28;20039;-78
2022/07/06 07:06:21;;;;;;;2.45;0.10;;;20.10;72.90;;;;;;5093611;28;20028;-77
2022/07/06 07:08:47;;;;;;;2.55;0.20;;;20.10;72.60;;;;;;5106687;28;20077;-68
2022/07/06 07:11:12;;;;;;;2.88;0.20;;;20.10;72.50;;;;;;5094131;28;20106;-71
2022/07/06 07:13:38;;;;;;;6.05;0.60;;;20.00;72.10;;;;;;5093534;28;20024;-77
2022/07/06 07:16:04;;;;;;;2.83;0.30;;;19.80;72.70;;;;;;5092862;28;20428;-76
2022/07/06 07:18:29;;;;;;;1.40;0.17;;;19.90;73.20;;;;;;5092700;28;20039;-77
2022/07/06 07:20:55;;;;;;;3.15;0.30;;;20.00;73.20;;;;;;5093485;28;20020;-76
2022/07/06 07:23:20;;;;;;;2.53;0.30;;;20.10;73.20;;;;;;5092817;28;20102;-77
2022/07/06 07:25:46;;;;;;;4.80;0.20;;;20.20;72.60;;;;;;5093020;28;20024;-77
2022/07/06 07:28:11;;;;;;;2.03;0.17;;;20.20;72.10;;;;;;5092046;28;20095;-79
2022/07/06 07:30:37;;;;;;;5.35;0.20;;;20.20;72.30;;;;;;5092649;28;20032;-78
2022/07/06 07:33:03;;;;;;;4.38;0.20;;;20.30;71.40;;;;;;5091026;28;20032;-71
2022/07/06 07:35:28;;;;;;;2.10;0.30;;;20.30;70.50;;;;;;5099157;28;20026;-70
2022/07/06 07:37:54;;;;;;;2.58;0.30;;;20.30;70.70;;;;;;5095994;28;20082;-72
2022/07/06 07:40:20;;;;;;;3.83;0.20;;;20.20;70.50;;;;;;5092055;28;20024;-72
2022/07/06 07:42:45;;;;;;;1.83;0.30;;;20.20;71.00;;;;;;5093338;28;20027;-71
2022/07/06 07:45:12;;;;;;;1.83;0.22;;;20.20;71.80;;;;;;5092331;28;20368;-73
2022/07/06 07:47:38;;;;;;;2.95;0.32;;;20.30;72.30;;;;;;5092304;28;20032;-72
2022/07/06 07:50:05;;;;;;;5.70;0.20;;;20.40;71.50;;;;;;5091166;28;20048;-72
2022/07/06 07:52:31;;;;;;;1.27;0.10;;;20.50;70.50;;;;;;5092035;28;20480;-72
2022/07/06 07:54:56;;;;;;;3.85;0.13;;;20.40;66.60;;;;;;5092140;28;20024;-72
2022/07/06 07:57:22;;;;;;;2.65;0.20;;;20.30;67.10;;;;;;5091535;28;20032;-72
2022/07/06 07:59:49;;;;;;;5.28;0.20;;;20.30;67.80;;;;;;5092534;28;20391;-72
2022/07/06 08:02:14;;;;;;;1.13;0.10;;;20.50;67.70;;;;;;5092770;28;20111;-73
2022/07/06 08:04:40;;;;;;;2.45;0.30;;;20.60;67.50;;;;;;5092473;28;20110;-72
2022/07/06 08:07:06;;;;;;;3.95;0.10;;;20.60;65.70;;;;;;5092106;28;20044;-73
2022/07/06 08:09:33;;;;;;;1.77;0.30;;;20.50;65.70;;;;;;5091360;28;20036;-73
2022/07/06 08:11:58;;;;;;;1.42;0.10;;;20.40;64.50;;;;;;5092708;28;20384;-73
2022/07/06 08:14:24;;;;;;;2.85;0.20;;;20.30;65.30;;;;;;5092444;28;20028;-73
2022/07/06 08:16:50;;;;;;;2.35;0.10;;;20.40;66.40;;;;;;5092346;28;20020;-73
2022/07/06 08:19:16;;;;;;;1.55;0.10;;;20.50;67.20;;;;;;5091999;28;20552;-73
2022/07/06 08:21:42;;;;;;;2.75;0.10;;;20.60;65.00;;;;;;5092017;28;20032;-73
2022/07/06 08:24:08;;;;;;;1.48;0.00;;;20.60;62.70;;;;;;5091962;28;20043;-73
2022/07/06 08:26:34;;;;;;;2.13;0.10;;;20.70;63.50;;;;;;5091591;28;20102;-73
2022/07/06 08:29:00;;;;;;;3.05;0.20;;;20.70;62.20;;;;;;5091896;28;20039;-73
2022/07/06 08:31:27;;;;;;;2.42;0.13;;;20.70;61.50;;;;;;5092171;28;20028;-73
2022/07/06 08:33:53;;;;;;;0.95;0.10;;;20.50;61.50;;;;;;5091700;28;20059;-71
2022/07/06 08:36:19;;;;;;;1.40;0.10;;;20.50;62.10;;;;;;5091542;28;20445;-71
2022/07/06 08:38:45;;;;;;;1.20;0.00;;;20.60;63.40;;;;;;5091679;28;20114;-71
2022/07/06 08:41:13;;;;;;;0.93;0.10;;;20.80;62.70;;;;;;5091530;28;20028;-71
2022/07/06 08:43:39;;;;;;;2.38;0.10;;;20.70;60.30;;;;;;5100581;28;20109;-73
2022/07/06 08:46:06;;;;;;;1.23;0.20;;;20.70;61.30;;;;;;5093279;28;20206;-73
2022/07/06 08:48:36;;;;;;;4.32;0.20;;;20.50;60.80;;;;;;5092852;28;20032;-73
2022/07/06 08:51:03;;;;;;;0.98;0.10;;;20.40;61.90;;;;;;5093253;28;20070;-72
2022/07/06 08:53:29;;;;;;;3.03;0.20;;;20.30;62.40;;;;;;5110983;28;20386;-72
2022/07/06 08:55:55;;;;;;;1.20;0.30;;;20.20;62.70;;;;;;5113586;28;20110;-72
2022/07/06 08:58:24;;;;;;;1.00;0.10;;;20.20;62.80;;;;;;5094455;28;20032;-71
2022/07/06 09:00:50;;;;;;;0.55;0.08;;;20.20;63.20;;;;;;5093707;28;20020;-71
2022/07/06 09:03:15;;;;;;;1.55;0.32;;;20.20;62.40;;;;;;5095692;28;20096;-71
2022/07/06 09:05:46;;;;;;;2.22;0.15;;;20.40;60.80;;;;;;5097401;28;20521;-72
2022/07/06 09:08:12;;;;;;;2.83;0.10;;;20.50;61.10;;;;;;5096935;28;20467;-72
2022/07/06 09:10:38;;;;;;;1.15;0.10;;;20.60;60.10;;;;;;5097015;28;20055;-73
2022/07/06 09:13:06;;;;;;;2.15;0.13;;;20.60;59.90;;;;;;5096953;28;20055;-72
2022/07/06 09:15:33;;;;;;;1.27;0.10;;;20.60;59.70;;;;;;5097207;28;20028;-72
2022/07/06 09:17:59;;;;;;;2.35;0.08;;;20.60;59.80;;;;;;5096629;28;20595;-72
2022/07/06 09:20:25;;;;;;;1.15;0.00;;;20.60;60.40;;;;;;5096923;28;20050;-72
2022/07/06 09:22:58;;;;;;;2.92;0.10;;;20.80;60.40;;;;;;5096471;28;20028;-72
2022/07/06 09:25:25;;;;;;;0.68;0.00;;;20.90;60.00;;;;;;5096977;28;20048;-73
2022/07/06 09:27:54;;;;;;;1.95;0.10;;;20.80;58.90;;;;;;5097000;28;20100;-73
2022/07/06 09:30:23;;;;;;;3.17;0.10;;;20.70;59.40;;;;;;5096606;28;20058;-72
2022/07/06 09:32:51;;;;;;;1.15;0.10;;;20.60;59.70;;;;;;5098001;28;20024;-71
2022/07/06 09:35:28;;;;;;;1.05;0.05;;;20.60;61.20;;;;;;5096861;28;20383;-72
2022/07/06 09:38:03;;;;;;;1.90;0.10;;;20.50;60.80;;;;;;5096238;28;20422;-73
2022/07/06 09:40:31;;;;;;;1.92;0.10;;;20.60;60.80;;;;;;5096335;28;20020;-72
2022/07/06 09:43:14;;;;;;;1.83;0.10;;;20.70;60.00;;;;;;5096423;28;20020;-73
2022/07/06 09:45:42;;;;;;;2.40;0.10;;;20.70;59.60;;;;;;5096251;28;20074;-73
2022/07/06 09:48:22;;;;;;;1.02;0.20;;;20.90;60.10;;;;;;5096084;28;20467;-72
2022/07/06 09:50:53;;;;;;;1.30;0.03;;;21.00;60.80;;;;;;5096032;28;20506;-72
2022/07/06 09:53:19;;;;;;;1.92;0.10;;;21.20;60.70;;;;;;5096149;28;20035;-72
2022/07/06 09:55:47;;;;;;;0.63;0.03;;;21.30;60.10;;;;;;5096425;28;20016;-72
2022/07/06 09:58:14;;;;;;;0.95;0.00;;;21.50;58.50;;;;;;5096226;28;20036;-72
2022/07/06 10:00:40;;;;;;;1.50;0.10;;;21.60;59.60;;;;;;5096172;28;20028;-72
2022/07/06 10:03:07;;;;;;;0.90;0.10;;;21.70;59.40;;;;;;5095870;28;20028;-72
2022/07/06 10:05:36;;;;;;;1.08;0.10;;;21.70;59.00;;;;;;5096313;28;20020;-72
2022/07/06 10:08:04;;;;;;;2.10;0.10;;;21.70;57.40;;;;;;5094524;28;20540;-72
2022/07/06 10:10:30;;;;;;;2.25;0.00;;;21.60;57.50;;;;;;5095291;28;20111;-72
2022/07/06 10:12:57;;;;;;;1.05;0.00;;;21.50;58.40;;;;;;5094389;28;20100;-78
2022/07/06 10:15:27;;;;;;;3.72;0.13;;;21.60;59.30;;;;;;5094637;28;20028;-79
2022/07/06 10:17:54;;;;;;;1.27;0.10;;;21.60;60.30;;;;;;5091839;28;20051;-77
2022/07/06 10:20:21;;;;;;;1.95;0.10;;;21.70;61.80;;;;;;5091784;28;20074;-78
2022/07/06 10:22:50;;;;;;;1.27;0.20;;;21.80;60.10;;;;;;5093840;28;20050;-77
2022/07/06 10:25:19;;;;;;;1.15;0.10;;;21.70;59.40;;;;;;5093469;28;20068;-77
2022/07/06 10:27:46;;;;;;;1.10;0.22;;;21.50;59.20;;;;;;5091653;28;20764;-75
2022/07/06 10:30:12;;;;;;;3.50;0.10;;;21.40;59.30;;;;;;5092999;28;20024;-78
2022/07/06 10:32:40;;;;;;;0.63;0.10;;;21.50;59.70;;;;;;5092379;28;20020;-78
2022/07/06 10:35:06;;;;;;;1.67;0.10;;;21.60;58.30;;;;;;5092647;28;20081;-76
2022/07/06 10:37:33;;;;;;;1.55;0.10;;;21.60;59.30;;;;;;5092154;28;20032;-76
2022/07/06 10:42:51;;;;;;;0.85;0.10;;;21.90;57.90;;;;;;5092904;28;20508;-78
2022/07/06 10:45:46;;;;;;;2.40;0.10;;;22.00;56.60;;;;;;5091450;28;20024;-78
2022/07/06 10:48:11;;;;;;;2.97;0.10;;;22.10;56.90;;;;;;5093638;28;20305;-78
2022/07/06 10:50:43;;;;;;;2.42;0.10;;;22.20;57.50;;;;;;5093646;28;20048;-78
2022/07/06 10:53:40;;;;;;;3.03;0.20;;;22.10;56.50;;;;;;5099465;28;20031;-76
2022/07/06 10:56:08;;;;;;;2.10;0.10;;;22.20;57.00;;;;;;5093191;28;20053;-78
2022/07/06 10:58:47;;;;;;;0.98;0.10;;;22.30;57.20;;;;;;5092865;28;20036;-78
2022/07/06 11:01:13;;;;;;;1.08;0.10;;;22.40;57.20;;;;;;5092280;28;20024;-78
2022/07/06 11:03:49;;;;;;;1.08;0.00;;;22.50;56.80;;;;;;5093734;28;21766;-78
2022/07/06 11:06:17;;;;;;;0.65;0.03;;;22.70;55.80;;;;;;5093723;28;20023;-77
2022/07/06 11:08:46;;;;;;;2.78;0.30;;;22.70;56.70;;;;;;5093664;28;20774;-77
2022/07/06 11:11:16;;;;;;;2.83;0.13;;;22.60;56.60;;;;;;5091891;28;20032;-77
2022/07/06 11:13:51;;;;;;;1.65;0.10;;;22.50;55.90;;;;;;5093124;28;20020;-77
2022/07/06 11:16:18;;;;;;;1.80;0.10;;;22.40;56.70;;;;;;5093300;28;20027;-78
2022/07/06 11:18:49;;;;;;;1.52;0.03;;;22.40;57.10;;;;;;5093062;28;20076;-77
2022/07/06 11:21:41;;;;;;;2.60;0.10;;;22.60;57.00;;;;;;5092778;28;20031;-77
2022/07/06 11:24:08;;;;;;;1.08;0.10;;;22.80;55.00;;;;;;5092882;28;20023;-77
2022/07/06 11:26:36;;;;;;;2.95;0.10;;;22.80;55.30;;;;;;5092441;28;20028;-78
2022/07/06 11:29:07;;;;;;;2.30;0.30;;;22.80;56.50;;;;;;5093089;28;20056;-81
2022/07/06 11:31:37;;;;;;;1.33;0.10;;;22.70;55.90;;;;;;5093530;28;20040;-74
2022/07/06 11:34:05;;;;;;;1.50;0.10;;;22.60;56.00;;;;;;5092615;28;20031;-73
2022/07/06 11:36:31;;;;;;;1.48;0.20;;;22.70;57.00;;;;;;5093734;28;20467;-73
2022/07/06 11:38:56;;;;;;;1.42;0.10;;;22.90;57.10;;;;;;5094028;28;20470;-73
2022/07/06 11:41:22;;;;;;;1.23;0.10;;;23.00;58.10;;;;;;5093524;28;20027;-73
2022/07/06 11:43:51;;;;;;;2.05;0.32;;;23.10;56.40;;;;;;5094160;28;20471;-72
2022/07/06 11:46:33;;;;;;;0.68;0.10;;;23.20;56.60;;;;;;5094205;28;20024;-72
2022/07/06 11:49:04;;;;;;;1.80;0.40;;;23.00;56.60;;;;;;5097674;28;20127;-69
2022/07/06 11:51:35;;;;;;;3.03;0.32;;;23.00;55.90;;;;;;5096980;28;20020;-72
2022/07/06 11:54:08;;;;;;;4.82;0.20;;;23.00;56.50;;;;;;5093481;28;20028;-73
2022/07/06 11:56:34;;;;;;;1.95;0.10;;;23.20;56.20;;;;;;5093307;28;20034;-73
2022/07/06 11:59:00;;;;;;;2.17;0.20;;;23.30;55.60;;;;;;5092774;28;20471;-71
2022/07/06 12:01:30;;;;;;;1.65;0.45;;;23.30;54.70;;;;;;5092980;28;20046;-73
2022/07/06 12:04:00;;;;;;;2.45;0.10;;;23.20;54.50;;;;;;5093199;28;20103;-73
2022/07/06 12:06:28;;;;;;;2.63;0.30;;;23.20;54.20;;;;;;5092950;28;20020;-73
2022/07/06 12:08:58;;;;;;;1.60;0.10;;;23.00;54.00;;;;;;5093068;28;20111;-73
2022/07/06 12:11:26;;;;;;;2.05;0.20;;;23.10;55.10;;;;;;5092670;28;20027;-73
2022/07/06 12:14:01;;;;;;;2.38;0.20;;;23.10;55.10;;;;;;5092866;28;20053;-73
2022/07/06 12:16:34;;;;;;;2.35;0.20;;;23.00;55.60;;;;;;5093117;28;20020;-73
2022/07/06 12:19:00;;;;;;;1.48;0.20;;;23.00;56.20;;;;;;5092780;28;20028;-73
2022/07/06 12:21:26;;;;;;;1.80;0.10;;;23.10;57.30;;;;;;5092579;28;20027;-74
2022/07/06 12:23:53;;;;;;;2.05;0.10;;;23.20;56.80;;;;;;5092682;28;20036;-73
2022/07/06 12:26:25;;;;;;;3.08;0.10;;;23.20;56.80;;;;;;5092652;28;20126;-73
2022/07/06 12:29:05;;;;;;;2.47;0.10;;;23.30;56.40;;;;;;5092343;28;20039;-73
2022/07/06 12:31:34;;;;;;;2.70;0.20;;;23.40;56.20;;;;;;5092894;28;20028;-73
2022/07/06 12:34:00;;;;;;;3.00;0.20;;;23.40;56.20;;;;;;5092360;28;20024;-73
2022/07/06 12:36:25;;;;;;;2.92;0.10;;;23.50;54.40;;;;;;5092208;28;20383;-75
2022/07/06 12:38:51;;;;;;;2.42;0.30;;;23.50;54.10;;;;;;5091341;28;20111;-75
2022/07/06 12:41:30;;;;;;;2.60;0.20;;;23.60;55.30;;;;;;5092183;28;20031;-75
2022/07/06 12:44:03;;;;;;;4.57;0.20;;;23.80;54.70;;;;;;5092683;28;20028;-74
2022/07/06 12:46:34;;;;;;;1.42;0.30;;;24.00;55.10;;;;;;5092520;28;20074;-73
2022/07/06 12:49:02;;;;;;;2.70;0.13;;;24.10;54.60;;;;;;5053072;28;1118302;-73
2022/07/06 12:51:28;;;;;;;1.70;0.10;;;24.00;54.30;;;;;;5093035;28;20361;-73
2022/07/06 12:54:12;;;;;;;3.72;0.13;;;23.80;54.40;;;;;;5093136;28;20030;-73
2022/07/06 12:56:56;;;;;;;1.48;0.20;;;23.90;55.60;;;;;;5093289;28;20024;-71